createdAt,value
2023-04-02T00:01:44.062Z,8.00
2023-04-02T00:04:46.737Z,7.10
2023-04-02T00:07:49.750Z,7.72
2023-04-02T00:10:52.678Z,6.80
2023-04-02T00:13:56.549Z,8.77
2023-04-02T00:16:59.699Z,9.48
2023-04-02T00:20:06.318Z,8.68
2023-04-02T00:23:11.632Z,9.93
2023-04-02T00:26:30.358Z,9.50
2023-04-02T00:29:34.219Z,7.65
2023-04-02T00:32:36.966Z,7.55
2023-04-02T00:35:39.665Z,7.40
2023-04-02T00:38:43.687Z,7.38
2023-04-02T00:41:47.575Z,7.20
2023-04-02T00:44:51.536Z,6.43
2023-04-02T00:47:54.138Z,8.25
2023-04-02T00:50:56.753Z,7.88
2023-04-02T00:54:01.450Z,8.48
2023-04-02T00:57:04.035Z,6.68
2023-04-02T01:00:20.365Z,6.68
2023-04-02T01:03:34.324Z,8.05
2023-04-02T01:06:38.430Z,5.00
2023-04-02T01:09:51.262Z,6.30
2023-04-02T01:12:57.501Z,6.22
2023-04-02T01:16:03.209Z,5.80
2023-04-02T01:19:18.169Z,6.90
2023-04-02T01:22:22.766Z,4.70
2023-04-02T01:25:26.592Z,6.00
2023-04-02T01:28:33.627Z,6.32
2023-04-02T01:31:37.558Z,5.90
2023-04-02T01:34:40.256Z,6.05
2023-04-02T01:37:46.635Z,5.97
2023-04-02T01:40:51.489Z,7.28
2023-04-02T01:43:54.774Z,6.45
2023-04-02T01:47:00.696Z,5.15
2023-04-02T01:50:05.683Z,5.88
2023-04-02T01:53:09.610Z,6.60
2023-04-02T01:56:12.197Z,6.40
2023-04-02T01:59:15.896Z,6.80
2023-04-02T02:02:21.794Z,7.95
2023-04-02T02:05:24.448Z,7.30
2023-04-02T02:08:35.402Z,7.45
2023-04-02T02:11:37.913Z,5.95
2023-04-02T02:14:40.683Z,6.80
2023-04-02T02:17:44.848Z,7.45
2023-04-02T02:20:47.496Z,5.40
2023-04-02T02:23:50.165Z,5.70
2023-04-02T02:26:59.586Z,6.55
2023-04-02T02:30:04.789Z,6.40
2023-04-02T02:33:14.234Z,7.80
2023-04-02T02:36:19.761Z,7.07
2023-04-02T02:39:24.066Z,6.70
2023-04-02T02:42:28.950Z,7.97
2023-04-02T02:45:34.339Z,7.13
2023-04-02T02:48:38.908Z,7.18
2023-04-02T02:51:43.482Z,7.15
2023-04-02T02:54:47.920Z,7.85
2023-04-02T02:57:53.175Z,7.45
2023-04-02T03:00:55.894Z,5.05
2023-04-02T03:03:59.909Z,6.50
2023-04-02T03:07:03.699Z,6.28
2023-04-02T03:10:10.766Z,7.20
2023-04-02T03:13:19.766Z,6.22
2023-04-02T03:16:24.440Z,4.93
2023-04-02T03:19:30.598Z,5.82
2023-04-02T03:22:35.949Z,6.03
2023-04-02T03:25:40.966Z,5.88
2023-04-02T03:28:44.716Z,6.25
2023-04-02T03:31:48.933Z,6.32
2023-04-02T03:34:53.696Z,6.28
2023-04-02T03:37:59.327Z,6.82
2023-04-02T03:41:04.476Z,6.53
2023-04-02T03:44:08.569Z,6.85
2023-04-02T03:47:12.886Z,6.25
2023-04-02T03:50:19.113Z,5.63
2023-04-02T03:53:24.023Z,6.22
2023-04-02T03:56:29.072Z,6.72
2023-04-02T03:59:37.785Z,6.53
2023-04-02T04:02:42.115Z,7.60
2023-04-02T04:05:48.447Z,4.95
2023-04-02T04:08:54.573Z,6.10
2023-04-02T04:12:03.110Z,6.45
2023-04-02T04:15:07.726Z,5.65
2023-04-02T04:18:13.379Z,6.50
2023-04-02T04:21:30.794Z,5.47
2023-04-02T04:24:33.374Z,5.97
2023-04-02T04:27:42.682Z,6.10
2023-04-02T04:30:48.682Z,6.80
2023-04-02T04:33:54.740Z,7.93
2023-04-02T04:37:01.622Z,7.63
2023-04-02T04:40:07.473Z,6.85
2023-04-02T04:43:14.882Z,7.40
2023-04-02T04:46:18.374Z,7.50
2023-04-02T04:49:21.854Z,7.72
2023-04-02T04:52:27.338Z,6.13
2023-04-02T04:55:31.724Z,5.30
2023-04-02T04:58:36.444Z,6.05
2023-04-02T05:01:41.516Z,4.90
2023-04-02T05:04:44.663Z,5.60
2023-04-02T05:07:50.280Z,4.82
2023-04-02T05:10:54.166Z,5.30
2023-04-02T05:13:58.811Z,4.57
2023-04-02T05:17:02.565Z,5.45
2023-04-02T05:20:09.708Z,5.28
2023-04-02T05:23:16.333Z,6.22
2023-04-02T05:26:20.536Z,8.07
2023-04-02T05:29:25.166Z,5.43
2023-04-02T05:32:29.298Z,5.38
2023-04-02T05:35:33.793Z,6.13
2023-04-02T05:38:38.778Z,6.10
2023-04-02T05:41:42.127Z,5.53
2023-04-02T05:44:47.773Z,5.55
2023-04-02T05:47:51.632Z,6.35
2023-04-02T05:50:55.488Z,6.50
2023-04-02T05:54:00.576Z,6.13
2023-04-02T05:57:04.105Z,4.63
2023-04-02T06:00:08.766Z,5.13
2023-04-02T06:03:15.002Z,4.80
2023-04-02T06:06:22.748Z,5.45
2023-04-02T06:09:31.515Z,4.75
2023-04-02T06:12:36.303Z,4.05
2023-04-02T06:15:38.886Z,4.72
2023-04-02T06:18:41.460Z,4.45
2023-04-02T06:21:47.067Z,5.05
2023-04-02T06:24:53.828Z,5.30
2023-04-02T06:27:57.589Z,4.20
2023-04-02T06:31:02.362Z,4.18
2023-04-02T06:34:06.885Z,4.25
2023-04-02T06:37:15.972Z,3.75
2023-04-02T06:40:39.404Z,4.13
2023-04-02T06:43:43.291Z,3.33
2023-04-02T06:46:47.932Z,4.18
2023-04-02T06:49:52.811Z,4.22
2023-04-02T06:52:56.532Z,3.78
2023-04-02T06:56:04.143Z,4.15
2023-04-02T06:59:07.462Z,3.88
2023-04-02T07:02:20.652Z,3.22
2023-04-02T07:05:23.318Z,2.97
2023-04-02T07:08:25.955Z,4.55
2023-04-02T07:11:29.800Z,3.55
2023-04-02T07:14:32.342Z,3.90
2023-04-02T07:17:34.891Z,3.65
2023-04-02T07:20:37.970Z,3.72
2023-04-02T07:23:40.492Z,3.20
2023-04-02T07:26:44.334Z,3.90
2023-04-02T07:29:46.898Z,4.15
2023-04-02T07:32:49.683Z,3.70
2023-04-02T07:35:53.344Z,4.07
2023-04-02T07:38:55.961Z,4.40
2023-04-02T07:42:00.416Z,3.70
2023-04-02T07:45:05.835Z,3.88
2023-04-02T07:48:09.584Z,4.03
2023-04-02T07:51:16.845Z,3.63
2023-04-02T07:54:19.373Z,3.85
2023-04-02T07:57:23.570Z,3.47
2023-04-02T08:00:26.780Z,3.50
2023-04-02T08:03:29.546Z,3.33
2023-04-02T08:06:32.339Z,3.20
2023-04-02T08:09:34.857Z,4.07
2023-04-02T08:12:38.740Z,3.30
2023-04-02T08:15:41.491Z,2.85
2023-04-02T08:18:44.006Z,2.95
2023-04-02T08:21:48.080Z,2.45
2023-04-02T08:24:50.808Z,3.35
2023-04-02T08:27:54.705Z,3.10
2023-04-02T08:30:57.276Z,3.05
2023-04-02T08:33:59.833Z,3.03
2023-04-02T08:37:02.414Z,3.30
2023-04-02T08:40:07.000Z,3.25
2023-04-02T08:43:17.100Z,3.10
2023-04-02T08:46:21.513Z,3.10
2023-04-02T08:49:29.782Z,2.85
2023-04-02T08:52:33.296Z,2.53
2023-04-02T08:55:37.768Z,2.70
2023-04-02T08:58:42.855Z,2.30
2023-04-02T09:01:47.765Z,2.95
2023-04-02T09:04:50.388Z,2.58
2023-04-02T09:07:53.430Z,2.80
2023-04-02T09:10:58.880Z,2.30
2023-04-02T09:14:04.487Z,2.80
2023-04-02T09:17:07.033Z,2.45
2023-04-02T09:20:17.096Z,3.50
2023-04-02T09:23:20.886Z,2.92
2023-04-02T09:26:24.310Z,2.45
2023-04-02T09:29:39.252Z,2.13
2023-04-02T09:32:47.087Z,2.40
2023-04-02T09:35:56.624Z,2.33
2023-04-02T09:39:01.342Z,2.25
2023-04-02T09:42:07.316Z,2.08
2023-04-02T09:45:21.201Z,2.60
2023-04-02T09:48:25.877Z,2.13
2023-04-02T09:51:29.913Z,1.95
2023-04-02T09:54:32.940Z,1.42
2023-04-02T09:57:38.119Z,2.50
2023-04-02T10:00:42.309Z,2.00
2023-04-02T10:03:44.931Z,1.83
2023-04-02T10:06:49.982Z,2.70
2023-04-02T10:09:58.369Z,2.03
2023-04-02T10:13:01.958Z,1.70
2023-04-02T10:16:08.091Z,1.83
2023-04-02T10:19:23.643Z,2.10
2023-04-02T10:22:28.827Z,2.25
2023-04-02T10:25:33.095Z,1.77
2023-04-02T10:28:44.756Z,1.52
2023-04-02T10:31:52.566Z,1.60
2023-04-02T10:34:57.800Z,1.80
2023-04-02T10:38:14.468Z,1.67
2023-04-02T10:41:26.596Z,1.90
2023-04-02T10:44:33.238Z,1.92
2023-04-02T10:47:39.279Z,1.80
2023-04-02T10:50:44.871Z,2.78
2023-04-02T10:53:50.199Z,12.30
2023-04-02T10:56:53.826Z,4.25
2023-04-02T10:59:58.298Z,8.10
2023-04-02T11:03:05.998Z,3.17
2023-04-02T11:06:14.239Z,1.70
2023-04-02T11:09:18.547Z,1.67
2023-04-02T11:12:22.680Z,1.30
2023-04-02T11:15:25.461Z,1.80
2023-04-02T11:18:34.070Z,1.30
2023-04-02T11:21:54.918Z,1.00
2023-04-02T11:25:00.240Z,9.82
2023-04-02T11:28:14.541Z,0.95
2023-04-02T11:31:21.253Z,1.05
2023-04-02T11:35:05.956Z,1.35
2023-04-02T11:38:54.883Z,1.40
2023-04-02T11:42:02.942Z,1.63
2023-04-02T11:45:51.863Z,1.55
2023-04-02T11:48:55.789Z,3.08
2023-04-02T11:52:10.893Z,2.72
2023-04-02T11:55:27.216Z,11.75
2023-04-02T11:58:37.093Z,1.05
2023-04-02T12:01:58.222Z,1.27
2023-04-02T12:05:09.103Z,1.48
2023-04-02T12:08:29.621Z,0.82
2023-04-02T12:11:33.671Z,1.30
2023-04-02T12:14:46.564Z,0.98
2023-04-02T12:17:49.148Z,1.15
2023-04-02T12:20:52.514Z,0.90
2023-04-02T12:23:57.741Z,0.70
2023-04-02T12:27:15.384Z,0.80
2023-04-02T12:30:21.174Z,1.25
2023-04-02T12:33:30.708Z,0.93
2023-04-02T12:36:34.388Z,0.73
2023-04-02T12:39:38.280Z,1.05
2023-04-02T12:42:40.820Z,0.82
2023-04-02T12:45:43.408Z,0.68
2023-04-02T12:48:45.932Z,0.82
2023-04-02T12:51:48.850Z,1.35
2023-04-02T12:54:53.451Z,1.00
2023-04-02T12:57:56.672Z,1.42
2023-04-02T13:01:15.798Z,0.70
2023-04-02T13:04:18.468Z,1.17
2023-04-02T13:07:22.141Z,0.63
2023-04-02T13:10:27.236Z,1.02
2023-04-02T13:13:31.012Z,1.20
2023-04-02T13:16:37.125Z,0.80
2023-04-02T13:19:39.730Z,1.33
2023-04-02T13:22:42.320Z,0.90
2023-04-02T13:25:46.204Z,0.77
2023-04-02T13:28:58.909Z,1.08
2023-04-02T13:32:02.241Z,0.98
2023-04-02T13:35:05.297Z,1.13
2023-04-02T13:38:08.549Z,0.55
2023-04-02T13:41:18.308Z,1.00
2023-04-02T13:44:22.834Z,0.90
2023-04-02T13:47:25.798Z,1.13
2023-04-02T13:50:28.960Z,1.35
2023-04-02T13:53:31.763Z,1.63
2023-04-02T13:56:36.067Z,1.17
2023-04-02T13:59:38.665Z,1.08
2023-04-02T14:02:44.377Z,1.90
2023-04-02T14:05:51.963Z,1.60
2023-04-02T14:08:57.524Z,1.00
2023-04-02T14:12:04.776Z,1.23
2023-04-02T14:15:15.597Z,0.88
2023-04-02T14:18:36.591Z,1.65
2023-04-02T14:21:44.356Z,1.38
2023-04-02T14:24:49.958Z,1.88
2023-04-02T14:27:57.203Z,1.15
2023-04-02T14:31:01.866Z,1.10
2023-04-02T14:34:07.968Z,1.33
2023-04-02T14:37:14.395Z,1.35
2023-04-02T14:40:20.478Z,0.90
2023-04-02T14:43:25.666Z,1.08
2023-04-02T14:46:28.608Z,1.23
2023-04-02T14:49:32.969Z,1.65
2023-04-02T14:52:35.653Z,1.42
2023-04-02T14:55:39.924Z,1.27
2023-04-02T14:58:46.659Z,1.23
2023-04-02T15:01:50.326Z,0.82
2023-04-02T15:04:55.348Z,1.48
2023-04-02T15:07:59.411Z,0.98
2023-04-02T15:11:05.886Z,0.80
2023-04-02T15:14:14.537Z,0.70
2023-04-02T15:17:17.122Z,1.80
2023-04-02T15:20:19.968Z,0.88
2023-04-02T15:23:29.021Z,1.30
2023-04-02T15:26:34.625Z,0.90
2023-04-02T15:29:43.967Z,0.73
2023-04-02T15:32:46.625Z,0.73
2023-04-02T15:35:50.687Z,0.80
2023-04-02T15:38:54.355Z,0.75
2023-04-02T15:42:02.476Z,1.02
2023-04-02T15:45:23.932Z,1.98
2023-04-02T15:48:57.220Z,2.67
2023-04-02T15:52:02.711Z,1.70
2023-04-02T15:55:11.551Z,1.42
2023-04-02T15:58:22.709Z,0.60
2023-04-02T16:01:30.837Z,0.73
2023-04-02T16:04:42.102Z,1.05
2023-04-02T16:07:58.788Z,1.00
2023-04-02T16:11:01.365Z,0.60
2023-04-02T16:14:15.348Z,0.93
2023-04-02T16:17:24.873Z,0.80
2023-04-02T16:20:28.803Z,1.52
2023-04-02T16:23:34.314Z,1.10
2023-04-02T16:26:52.299Z,1.35
2023-04-02T16:30:37.272Z,1.05
2023-04-02T16:33:56.626Z,1.17
2023-04-02T16:37:02.238Z,0.95
2023-04-02T16:40:07.872Z,1.25
2023-04-02T16:43:19.333Z,0.65
2023-04-02T16:46:38.397Z,1.08
2023-04-02T16:49:45.576Z,1.10
2023-04-02T16:52:51.783Z,0.90
2023-04-02T16:56:12.509Z,0.70
2023-04-02T16:59:19.553Z,1.27
2023-04-02T17:02:27.114Z,1.25
2023-04-02T17:05:34.195Z,1.10
2023-04-02T17:08:39.649Z,1.02
2023-04-02T17:11:42.843Z,1.15
2023-04-02T17:14:47.666Z,0.77
2023-04-02T17:17:50.224Z,1.45
2023-04-02T17:20:54.322Z,0.82
2023-04-02T17:23:59.579Z,1.10
2023-04-02T17:27:06.317Z,1.98
2023-04-02T17:30:14.124Z,0.60
2023-04-02T17:33:17.404Z,0.90
2023-04-02T17:36:32.632Z,1.30
2023-04-02T17:39:39.204Z,0.70
2023-04-02T17:42:48.127Z,1.00
2023-04-02T17:45:52.557Z,0.93
2023-04-02T17:48:57.336Z,1.48
2023-04-02T17:52:02.538Z,1.63
2023-04-02T17:55:10.676Z,0.95
2023-04-02T17:58:20.431Z,0.90
2023-04-02T18:01:25.855Z,0.77
2023-04-02T18:04:34.404Z,0.80
2023-04-02T18:07:40.728Z,1.00
2023-04-02T18:10:47.532Z,0.82
2023-04-02T18:13:51.756Z,1.08
2023-04-02T18:16:55.798Z,0.88
2023-04-02T18:20:01.135Z,0.93
2023-04-02T18:23:08.006Z,1.10
2023-04-02T18:26:13.754Z,1.02
2023-04-02T18:29:22.703Z,1.20
2023-04-02T18:32:34.677Z,1.77
2023-04-02T18:35:38.267Z,3.50
2023-04-02T18:38:45.246Z,7.47
2023-04-02T18:41:50.477Z,3.13
2023-04-02T18:44:56.901Z,2.60
2023-04-02T18:48:02.235Z,1.08
2023-04-02T18:51:06.945Z,0.93
2023-04-02T18:54:15.986Z,1.08
2023-04-02T18:57:21.092Z,1.27
2023-04-02T19:00:27.067Z,1.02
2023-04-02T19:03:31.582Z,0.93
2023-04-02T19:06:37.100Z,1.77
2023-04-02T19:09:42.158Z,1.20
2023-04-02T19:12:44.738Z,1.40
2023-04-02T19:15:58.898Z,1.45
2023-04-02T19:19:04.703Z,2.23
2023-04-02T19:22:16.637Z,1.02
2023-04-02T19:25:47.189Z,1.40
2023-04-02T19:28:52.686Z,1.10
2023-04-02T19:31:55.887Z,1.52
2023-04-02T19:34:59.923Z,1.60
2023-04-02T19:38:14.592Z,1.70
2023-04-02T19:41:22.387Z,1.40
2023-04-02T19:44:25.000Z,3.65
2023-04-02T19:47:27.647Z,2.53
2023-04-02T19:50:30.422Z,8.27
2023-04-02T19:53:33.274Z,6.03
2023-04-02T19:56:37.205Z,2.63
2023-04-02T19:59:39.794Z,5.82
2023-04-02T20:02:42.396Z,4.32
2023-04-02T20:05:45.001Z,22.25
2023-04-02T20:08:47.600Z,4.43
2023-04-02T20:11:51.520Z,2.10
2023-04-02T20:14:54.097Z,2.13
2023-04-02T20:17:56.764Z,3.75
2023-04-02T20:20:59.352Z,4.82
2023-04-02T20:24:02.072Z,2.05
2023-04-02T20:27:05.982Z,2.10
2023-04-02T20:30:09.506Z,5.40
2023-04-02T20:33:12.183Z,1.90
2023-04-02T20:36:15.762Z,2.33
2023-04-02T20:39:19.423Z,2.00
2023-04-02T20:42:23.315Z,6.10
2023-04-02T20:45:27.789Z,1.60
2023-04-02T20:48:32.075Z,3.05
2023-04-02T20:51:35.104Z,2.50
2023-04-02T20:54:37.758Z,4.18
2023-04-02T20:57:41.820Z,7.40
2023-04-02T21:00:44.453Z,4.82
2023-04-02T21:03:47.026Z,2.22
2023-04-02T21:06:49.588Z,5.72
2023-04-02T21:09:52.732Z,8.45
2023-04-02T21:12:56.629Z,4.55
2023-04-02T21:15:59.357Z,1.85
2023-04-02T21:19:02.895Z,1.58
2023-04-02T21:22:05.579Z,1.58
2023-04-02T21:25:08.880Z,1.38
2023-04-02T21:28:12.801Z,2.03
2023-04-02T21:31:16.173Z,2.33
2023-04-02T21:34:18.766Z,4.65
2023-04-02T21:37:21.302Z,2.10
2023-04-02T21:40:23.822Z,2.58
2023-04-02T21:43:27.680Z,10.93
2023-04-02T21:46:31.265Z,2.15
2023-04-02T21:49:33.873Z,1.88
2023-04-02T21:52:36.424Z,6.78
2023-04-02T21:55:38.998Z,5.07
2023-04-02T21:58:43.301Z,2.05
2023-04-02T22:01:47.486Z,1.88
2023-04-02T22:04:51.894Z,2.45
2023-04-02T22:07:55.013Z,1.17
2023-04-02T22:10:57.530Z,3.15
2023-04-02T22:14:03.193Z,5.43
2023-04-02T22:17:05.994Z,2.78
2023-04-02T22:20:10.594Z,1.98
2023-04-02T22:23:13.119Z,2.92
2023-04-02T22:26:16.516Z,2.47
2023-04-02T22:29:20.457Z,1.83
2023-04-02T22:32:23.021Z,1.88
2023-04-02T22:35:25.661Z,1.88
2023-04-02T22:38:28.294Z,2.03
2023-04-02T22:41:31.916Z,2.03
2023-04-02T22:44:35.872Z,1.60
2023-04-02T22:47:38.465Z,1.55
2023-04-02T22:50:41.137Z,2.25
2023-04-02T22:53:43.929Z,1.45
2023-04-02T22:56:46.505Z,2.90
2023-04-02T22:59:50.451Z,1.63
2023-04-02T23:02:53.001Z,1.80
2023-04-02T23:05:59.638Z,3.97
2023-04-02T23:09:02.242Z,3.03
2023-04-02T23:12:05.351Z,3.40
2023-04-02T23:15:10.460Z,2.97
2023-04-02T23:18:13.063Z,6.03
2023-04-02T23:21:15.830Z,1.60
2023-04-02T23:24:18.380Z,3.50
2023-04-02T23:27:21.811Z,2.45
2023-04-02T23:30:25.934Z,2.42
2023-04-02T23:33:28.496Z,1.77
2023-04-02T23:36:31.911Z,3.75
2023-04-02T23:39:34.613Z,3.90
2023-04-02T23:42:37.192Z,3.30
2023-04-02T23:45:41.249Z,1.40
2023-04-02T23:48:44.428Z,2.05
2023-04-02T23:51:47.028Z,1.90
2023-04-02T23:54:49.631Z,1.95
2023-04-02T23:57:52.357Z,1.75
